createdAt,value
2018-01-11T00:00:54.469Z,97581.64
2018-01-11T00:03:29.746Z,97579.42
2018-01-11T00:05:58.057Z,97581.58
2018-01-11T00:08:26.406Z,97583.34
2018-01-11T00:10:54.719Z,97576.97
2018-01-11T00:13:24.237Z,97579.96
2018-01-11T00:15:52.563Z,97582.95
2018-01-11T00:18:20.909Z,97579.97
2018-01-11T00:20:49.246Z,97580.39
2018-01-11T00:23:17.590Z,97576.16
2018-01-11T00:25:45.906Z,97579.12
2018-01-11T00:28:14.254Z,97577.42
2018-01-11T00:30:42.584Z,97570.63
2018-01-11T00:33:11.698Z,97570.63
2018-01-11T00:35:40.041Z,97573.19
2018-01-11T00:38:08.362Z,97575.71
2018-01-11T00:40:36.704Z,97576.52
2018-01-11T00:43:05.022Z,97574.83
2018-01-11T00:45:34.128Z,97579.55
2018-01-11T00:48:02.479Z,97572.33
2018-01-11T00:50:31.563Z,97570.19
2018-01-11T00:52:59.882Z,97571.07
2018-01-11T00:55:28.262Z,97577.02
2018-01-11T00:57:56.596Z,97575.29
2018-01-11T01:00:25.682Z,97572.77
2018-01-11T01:02:54.015Z,97572.75
2018-01-11T01:05:22.327Z,97578.28
2018-01-11T01:07:50.660Z,97580.38
2018-01-11T01:10:18.978Z,97576.58
2018-01-11T01:12:47.317Z,97590.17
2018-01-11T01:15:15.642Z,97585.92
2018-01-11T01:17:43.963Z,97586.34
2018-01-11T01:20:12.293Z,97590.58
2018-01-11T01:22:40.611Z,97596.55
2018-01-11T01:25:08.944Z,97592.27
2018-01-11T01:27:38.798Z,97597.38
2018-01-11T01:30:07.142Z,97600.34
2018-01-11T01:32:35.481Z,97601.61
2018-01-11T01:35:03.816Z,97599.90
2018-01-11T01:37:32.902Z,97602.03
2018-01-11T01:40:01.241Z,97607.58
2018-01-11T01:42:29.572Z,97610.54
2018-01-11T01:44:58.690Z,97611.80
2018-01-11T01:47:27.014Z,97609.72
2018-01-11T01:49:56.247Z,97610.98
2018-01-11T01:52:24.567Z,97608.86
2018-01-11T01:54:52.881Z,97610.98
2018-01-11T01:57:21.206Z,97605.45
2018-01-11T01:59:49.533Z,97605.86
2018-01-11T02:02:17.853Z,97604.59
2018-01-11T02:04:46.189Z,97610.55
2018-01-11T02:07:14.490Z,97612.66
2018-01-11T02:09:42.806Z,97609.71
2018-01-11T02:12:11.118Z,97612.23
2018-01-11T02:14:39.438Z,97611.39
2018-01-11T02:17:07.764Z,97613.10
2018-01-11T02:19:36.194Z,97608.02
2018-01-11T02:22:04.525Z,97608.42
2018-01-11T02:24:32.838Z,97604.19
2018-01-11T02:27:01.172Z,97610.13
2018-01-11T02:29:30.127Z,97605.87
2018-01-11T02:32:03.672Z,97604.19
2018-01-11T02:34:31.994Z,97612.67
2018-01-11T02:37:00.317Z,97611.81
2018-01-11T02:39:28.654Z,97613.92
2018-01-11T02:41:56.966Z,97609.25
2018-01-11T02:44:25.871Z,97610.08
2018-01-11T02:46:57.104Z,97614.33
2018-01-11T02:49:25.444Z,97607.09
2018-01-11T02:51:53.777Z,97605.81
2018-01-11T02:54:22.154Z,97613.06
2018-01-11T02:56:50.479Z,97601.14
2018-01-11T02:59:18.812Z,97609.23
2018-01-11T03:01:47.890Z,97610.06
2018-01-11T03:04:16.216Z,97613.06
2018-01-11T03:06:44.556Z,97617.75
2018-01-11T03:09:12.896Z,97618.61
2018-01-11T03:11:41.234Z,97619.06
2018-01-11T03:14:09.577Z,97623.30
2018-01-11T03:16:37.890Z,97625.42
2018-01-11T03:19:06.408Z,97621.18
2018-01-11T03:21:34.740Z,97639.00
2018-01-11T03:24:03.081Z,97634.31
2018-01-11T03:26:31.395Z,97633.45
2018-01-11T03:28:59.723Z,97640.30
2018-01-11T03:31:28.057Z,97638.17
2018-01-11T03:33:57.142Z,97641.57
2018-01-11T03:36:26.218Z,97641.15
2018-01-11T03:38:54.557Z,97641.55
2018-01-11T03:41:22.882Z,97636.88
2018-01-11T03:43:51.203Z,97634.33
2018-01-11T03:46:19.514Z,97639.02
2018-01-11T03:48:47.834Z,97634.75
2018-01-11T03:51:16.176Z,97633.02
2018-01-11T03:53:44.517Z,97634.30
2018-01-11T03:56:12.844Z,97633.03
2018-01-11T03:58:41.170Z,97643.22
2018-01-11T04:01:10.252Z,97645.32
2018-01-11T04:03:38.571Z,97643.64
2018-01-11T04:06:06.911Z,97646.61
2018-01-11T04:08:35.244Z,97647.07
2018-01-11T04:11:03.575Z,97652.17
2018-01-11T04:13:31.914Z,97661.12
2018-01-11T04:16:01.104Z,97660.69
2018-01-11T04:18:29.431Z,97662.37
2018-01-11T04:20:57.805Z,97656.85
2018-01-11T04:23:26.135Z,97662.36
2018-01-11T04:25:54.465Z,97664.49
2018-01-11T04:28:22.818Z,97672.18
2018-01-11T04:30:51.152Z,97670.46
2018-01-11T04:33:19.488Z,97670.88
2018-01-11T04:35:47.817Z,97678.09
2018-01-11T04:38:16.961Z,97681.53
2018-01-11T04:40:45.282Z,97682.80
2018-01-11T04:43:13.620Z,97680.25
2018-01-11T04:45:41.959Z,97685.78
2018-01-11T04:48:10.286Z,97680.24
2018-01-11T04:50:38.599Z,97682.80
2018-01-11T04:53:06.916Z,97689.14
2018-01-11T04:55:35.237Z,97688.73
2018-01-11T04:58:03.573Z,97696.83
2018-01-11T05:00:37.306Z,97692.56
2018-01-11T05:03:05.626Z,97694.27
2018-01-11T05:05:33.941Z,97695.97
2018-01-11T05:08:02.274Z,97697.67
2018-01-11T05:10:31.293Z,97698.08
2018-01-11T05:12:59.619Z,97707.45
2018-01-11T05:15:27.952Z,97706.17
2018-01-11T05:17:56.287Z,97711.28
2018-01-11T05:20:24.611Z,97707.86
2018-01-11T05:22:54.699Z,97714.21
2018-01-11T05:25:23.044Z,97724.86
2018-01-11T05:27:51.409Z,97721.02
2018-01-11T05:30:19.733Z,97724.41
2018-01-11T05:32:48.826Z,97723.18
2018-01-11T05:35:17.166Z,97721.89
2018-01-11T05:37:45.519Z,97726.14
2018-01-11T05:40:13.843Z,97725.26
2018-01-11T05:42:42.171Z,97731.65
2018-01-11T05:45:10.496Z,97732.92
2018-01-11T05:47:38.832Z,97728.69
2018-01-11T05:50:07.178Z,97729.09
2018-01-11T05:52:35.517Z,97733.80
2018-01-11T05:55:03.838Z,97738.88
2018-01-11T05:57:32.937Z,97743.14
2018-01-11T06:00:01.260Z,97737.20
2018-01-11T06:02:29.596Z,97743.99
2018-01-11T06:04:57.932Z,97739.33
2018-01-11T06:07:26.266Z,97747.82
2018-01-11T06:09:54.589Z,97742.32
2018-01-11T06:12:22.917Z,97739.76
2018-01-11T06:14:51.255Z,97746.13
2018-01-11T06:17:19.594Z,97752.92
2018-01-11T06:19:47.921Z,97744.45
2018-01-11T06:22:16.998Z,97751.68
2018-01-11T06:24:45.317Z,97758.91
2018-01-11T06:27:13.641Z,97755.48
2018-01-11T06:29:41.977Z,97758.88
2018-01-11T06:32:10.305Z,97757.63
2018-01-11T06:34:38.644Z,97763.55
2018-01-11T06:37:06.973Z,97767.83
2018-01-11T06:39:36.009Z,97777.20
2018-01-11T06:42:04.336Z,97773.80
2018-01-11T06:44:32.664Z,97779.31
2018-01-11T06:47:00.984Z,97785.16
2018-01-11T06:49:29.332Z,97791.00
2018-01-11T06:51:58.424Z,97798.55
2018-01-11T06:54:26.758Z,97800.38
2018-01-11T06:56:56.457Z,97800.45
2018-01-11T06:59:24.813Z,97798.36
2018-01-11T07:01:53.151Z,97803.48
2018-01-11T07:04:21.483Z,97808.14
2018-01-11T07:06:49.820Z,97807.13
2018-01-11T07:09:18.170Z,97808.08
2018-01-11T07:11:46.514Z,97805.15
2018-01-11T07:14:14.843Z,97808.16
2018-01-11T07:16:44.302Z,97801.80
2018-01-11T07:19:12.630Z,97805.20
2018-01-11T07:21:40.971Z,97803.12
2018-01-11T07:24:09.323Z,97808.63
2018-01-11T07:26:37.661Z,97814.19
2018-01-11T07:29:06.005Z,97811.20
2018-01-11T07:31:34.555Z,97817.60
2018-01-11T07:34:02.895Z,97825.69
2018-01-11T07:36:31.209Z,97820.58
2018-01-11T07:38:59.551Z,97826.53
2018-01-11T07:41:28.858Z,97827.39
2018-01-11T07:43:57.186Z,97831.63
2018-01-11T07:46:25.514Z,97833.34
2018-01-11T07:48:53.861Z,97840.56
2018-01-11T07:51:22.965Z,97842.27
2018-01-11T07:53:51.306Z,97843.97
2018-01-11T07:56:19.641Z,97846.95
2018-01-11T07:58:47.970Z,97853.34
2018-01-11T08:01:17.073Z,97858.45
2018-01-11T08:03:45.417Z,97864.81
2018-01-11T08:06:13.758Z,97860.16
2018-01-11T08:08:42.079Z,97868.66
2018-01-11T08:11:10.402Z,97871.66
2018-01-11T08:13:38.748Z,97883.15
2018-01-11T08:16:07.072Z,97888.66
2018-01-11T08:18:35.424Z,97886.97
2018-01-11T08:21:03.785Z,97890.77
2018-01-11T08:23:32.137Z,97893.31
2018-01-11T08:26:01.076Z,97894.18
2018-01-11T08:28:29.417Z,97897.58
2018-01-11T08:30:59.753Z,97906.95
2018-01-11T08:33:28.075Z,97908.64
2018-01-11T08:35:56.390Z,97913.80
2018-01-11T08:38:24.719Z,97911.67
2018-01-11T08:40:53.057Z,97912.51
2018-01-11T08:43:21.380Z,97918.92
2018-01-11T08:45:49.703Z,97919.75
2018-01-11T08:48:18.038Z,97919.77
2018-01-11T08:50:46.370Z,97918.47
2018-01-11T08:53:15.481Z,97919.61
2018-01-11T08:55:43.835Z,97920.74
2018-01-11T08:58:12.188Z,97926.95
2018-01-11T09:00:40.524Z,97924.12
2018-01-11T09:03:09.615Z,97930.10
2018-01-11T09:05:37.943Z,97933.03
2018-01-11T09:08:06.292Z,97937.67
2018-01-11T09:10:34.614Z,97943.29
2018-01-11T09:13:02.950Z,97951.27
2018-01-11T09:15:31.293Z,97947.89
2018-01-11T09:17:59.626Z,97950.29
2018-01-11T09:20:28.298Z,97949.04
2018-01-11T09:22:57.604Z,97952.97
2018-01-11T09:25:25.936Z,97956.52
2018-01-11T09:27:54.804Z,97963.41
2018-01-11T09:30:23.140Z,97958.30
2018-01-11T09:32:51.463Z,97966.87
2018-01-11T09:35:19.793Z,97964.80
2018-01-11T09:37:48.133Z,97967.36
2018-01-11T09:40:16.466Z,97974.99
2018-01-11T09:42:44.810Z,97974.95
2018-01-11T09:45:13.137Z,97974.58
2018-01-11T09:47:41.450Z,97976.30
2018-01-11T09:50:09.789Z,97968.70
2018-01-11T09:52:38.118Z,97975.52
2018-01-11T09:55:06.464Z,97972.98
2018-01-11T09:57:34.786Z,97977.67
2018-01-11T10:00:03.518Z,97969.17
2018-01-11T10:02:31.862Z,97977.69
2018-01-11T10:05:00.186Z,97970.88
2018-01-11T10:07:28.524Z,97974.69
2018-01-11T10:09:56.891Z,97971.28
2018-01-11T10:12:25.206Z,97965.33
2018-01-11T10:14:53.549Z,97973.44
2018-01-11T10:17:21.887Z,97978.53
2018-01-11T10:19:50.230Z,97976.81
2018-01-11T10:22:18.578Z,97979.38
2018-01-11T10:24:46.916Z,97976.39
2018-01-11T10:27:15.999Z,97979.36
2018-01-11T10:29:45.073Z,97983.63
2018-01-11T10:32:13.423Z,97985.76
2018-01-11T10:34:41.746Z,97983.66
2018-01-11T10:37:10.081Z,97983.64
2018-01-11T10:39:38.405Z,97988.34
2018-01-11T10:42:07.553Z,97991.73
2018-01-11T10:44:35.899Z,97987.91
2018-01-11T10:47:04.233Z,97987.47
2018-01-11T10:49:33.723Z,97988.73
2018-01-11T10:52:05.653Z,97992.58
2018-01-11T10:54:33.987Z,97981.05
2018-01-11T10:57:02.325Z,97982.80
2018-01-11T10:59:30.646Z,97992.16
2018-01-11T11:02:04.409Z,97993.86
2018-01-11T11:04:32.729Z,97995.57
2018-01-11T11:07:01.058Z,97997.70
2018-01-11T11:09:32.250Z,97993.43
2018-01-11T11:12:00.582Z,97994.30
2018-01-11T11:14:28.905Z,97991.75
2018-01-11T11:16:57.223Z,97995.14
2018-01-11T11:19:25.548Z,97999.42
2018-01-11T11:21:53.888Z,97997.70
2018-01-11T11:24:22.210Z,97997.27
2018-01-11T11:26:50.534Z,98001.95
2018-01-11T11:29:18.855Z,98004.07
2018-01-11T11:31:47.165Z,98007.04
2018-01-11T11:34:15.755Z,98008.34
2018-01-11T11:36:44.087Z,98007.04
2018-01-11T11:39:12.407Z,98006.63
2018-01-11T11:41:41.503Z,98001.94
2018-01-11T11:44:09.823Z,98010.89
2018-01-11T11:46:38.142Z,98007.89
2018-01-11T11:49:06.484Z,98010.85
2018-01-11T11:51:34.816Z,98009.97
2018-01-11T11:54:03.156Z,98003.16
2018-01-11T11:56:31.482Z,98001.43
2018-01-11T11:58:59.814Z,98001.86
2018-01-11T12:01:28.154Z,98004.81
2018-01-11T12:03:56.511Z,98004.05
2018-01-11T12:06:24.852Z,98006.59
2018-01-11T12:08:53.178Z,98009.63
2018-01-11T12:11:21.508Z,98005.36
2018-01-11T12:13:49.890Z,98002.78
2018-01-11T12:16:18.233Z,98007.89
2018-01-11T12:18:46.578Z,98003.99
2018-01-11T12:21:14.894Z,98011.68
2018-01-11T12:23:43.246Z,98010.02
2018-01-11T12:26:11.570Z,98009.16
2018-01-11T12:28:39.909Z,98000.56
2018-01-11T12:31:08.221Z,97998.42
2018-01-11T12:33:36.558Z,97997.17
2018-01-11T12:36:04.893Z,97997.56
2018-01-11T12:38:33.254Z,98002.67
2018-01-11T12:41:01.592Z,98004.81
2018-01-11T12:43:29.915Z,98007.83
2018-01-11T12:45:58.248Z,98010.38
2018-01-11T12:48:26.599Z,98011.63
2018-01-11T12:50:54.930Z,98010.36
2018-01-11T12:53:23.250Z,98007.75
2018-01-11T12:55:52.178Z,98011.64
2018-01-11T12:58:20.552Z,98013.70
2018-01-11T13:00:49.731Z,98016.19
2018-01-11T13:03:18.076Z,98025.58
2018-01-11T13:05:46.444Z,98019.91
2018-01-11T13:08:14.784Z,98024.14
2018-01-11T13:10:43.121Z,98023.92
2018-01-11T13:13:11.458Z,98029.54
2018-01-11T13:15:39.793Z,98026.48
2018-01-11T13:18:08.132Z,98033.95
2018-01-11T13:20:36.468Z,98034.48
2018-01-11T13:23:04.810Z,98034.94
2018-01-11T13:25:33.154Z,98035.83
2018-01-11T13:28:02.486Z,98042.39
2018-01-11T13:30:30.832Z,98045.01
2018-01-11T13:33:00.529Z,98044.19
2018-01-11T13:35:28.882Z,98044.59
2018-01-11T13:37:57.249Z,98043.72
2018-01-11T13:40:25.594Z,98052.63
2018-01-11T13:42:53.923Z,98053.89
2018-01-11T13:45:22.283Z,98054.73
2018-01-11T13:47:50.608Z,98060.30
2018-01-11T13:50:18.935Z,98058.55
2018-01-11T13:52:47.254Z,98064.06
2018-01-11T13:55:15.592Z,98067.48
2018-01-11T13:57:43.949Z,98073.70
2018-01-11T14:00:12.297Z,98077.05
2018-01-11T14:02:40.676Z,98077.53
2018-01-11T14:05:09.005Z,98076.73
2018-01-11T14:07:37.349Z,98074.66
2018-01-11T14:10:05.702Z,98075.92
2018-01-11T14:12:34.061Z,98084.81
2018-01-11T14:15:02.400Z,98085.32
2018-01-11T14:17:31.494Z,98089.60
2018-01-11T14:19:59.833Z,98082.68
2018-01-11T14:22:28.193Z,98091.22
2018-01-11T14:24:56.558Z,98087.31
2018-01-11T14:27:24.903Z,98092.81
2018-01-11T14:29:53.998Z,98090.58
2018-01-11T14:32:22.342Z,98096.66
2018-01-11T14:34:50.683Z,98101.90
2018-01-11T14:37:19.002Z,98108.80
2018-01-11T14:39:47.354Z,98107.52
2018-01-11T14:42:16.061Z,98113.92
2018-01-11T14:44:44.390Z,98110.94
2018-01-11T14:47:12.711Z,98108.40
2018-01-11T14:49:41.051Z,98109.73
2018-01-11T14:52:09.363Z,98102.51
2018-01-11T14:54:38.692Z,98114.42
2018-01-11T14:57:07.020Z,98116.98
2018-01-11T14:59:35.343Z,98116.58
2018-01-11T15:02:03.672Z,98115.74
2018-01-11T15:04:32.024Z,98123.42
2018-01-11T15:07:00.339Z,98120.43
2018-01-11T15:09:29.121Z,98128.53
2018-01-11T15:11:57.442Z,98130.66
2018-01-11T15:14:26.043Z,98132.35
2018-01-11T15:16:54.408Z,98143.46
2018-01-11T15:19:22.733Z,98139.63
2018-01-11T15:21:51.075Z,98145.17
2018-01-11T15:24:20.174Z,98152.84
2018-01-11T15:26:48.487Z,98147.29
2018-01-11T15:29:16.814Z,98154.93
2018-01-11T15:31:45.140Z,98156.63
2018-01-11T15:34:13.449Z,98161.73
2018-01-11T15:36:41.762Z,98161.75
2018-01-11T15:39:11.312Z,98165.94
2018-01-11T15:41:39.632Z,98174.44
2018-01-11T15:44:08.744Z,98169.35
2018-01-11T15:46:37.081Z,98168.55
2018-01-11T15:49:05.404Z,98179.20
2018-01-11T15:51:34.489Z,98174.09
2018-01-11T15:54:02.824Z,98174.55
2018-01-11T15:56:31.817Z,98176.67
2018-01-11T15:59:00.134Z,98183.51
2018-01-11T16:01:29.223Z,98191.16
2018-01-11T16:03:57.547Z,98191.16
2018-01-11T16:06:26.419Z,98196.24
2018-01-11T16:08:54.760Z,98197.09
2018-01-11T16:11:23.096Z,98203.08
2018-01-11T16:13:51.641Z,98206.51
2018-01-11T16:16:20.737Z,98207.77
2018-01-11T16:18:49.080Z,98211.52
2018-01-11T16:21:17.413Z,98213.42
2018-01-11T16:23:47.309Z,98215.95
2018-01-11T16:26:15.666Z,98222.02
2018-01-11T16:28:44.779Z,98220.39
2018-01-11T16:31:13.112Z,98222.56
2018-01-11T16:33:41.447Z,98227.25
2018-01-11T16:36:09.763Z,98234.47
2018-01-11T16:38:38.111Z,98232.23
2018-01-11T16:41:06.435Z,98228.91
2018-01-11T16:43:34.782Z,98229.33
2018-01-11T16:46:03.161Z,98229.81
2018-01-11T16:48:31.487Z,98238.28
2018-01-11T16:50:59.833Z,98235.31
2018-01-11T16:53:28.162Z,98237.03
2018-01-11T16:55:56.497Z,98236.60
2018-01-11T16:58:24.839Z,98238.20
2018-01-11T17:00:53.164Z,98241.63
2018-01-11T17:03:21.512Z,98243.73
2018-01-11T17:05:49.847Z,98248.81
2018-01-11T17:08:18.166Z,98247.82
2018-01-11T17:10:46.500Z,98244.38
2018-01-11T17:13:15.590Z,98251.75
2018-01-11T17:15:43.927Z,98249.69
2018-01-11T17:18:12.261Z,98250.14
2018-01-11T17:20:40.597Z,98250.98
2018-01-11T17:23:08.925Z,98254.80
2018-01-11T17:25:37.260Z,98249.64
2018-01-11T17:28:05.625Z,98262.44
2018-01-11T17:30:33.971Z,98267.55
2018-01-11T17:33:02.327Z,98270.09
2018-01-11T17:35:30.660Z,98279.70
2018-01-11T17:37:58.998Z,98281.84
2018-01-11T17:40:27.323Z,98282.23
2018-01-11T17:42:55.652Z,98279.45
2018-01-11T17:45:24.034Z,98283.75
2018-01-11T17:47:52.361Z,98288.67
2018-01-11T17:50:22.225Z,98292.17
2018-01-11T17:52:51.297Z,98293.52
2018-01-11T17:55:19.621Z,98293.52
2018-01-11T17:57:48.004Z,98296.50
2018-01-11T18:00:17.822Z,98298.27
2018-01-11T18:02:46.144Z,98294.67
2018-01-11T18:05:14.482Z,98296.96
2018-01-11T18:07:42.817Z,98300.02
2018-01-11T18:10:11.163Z,98297.89
2018-01-11T18:12:39.496Z,98303.45
2018-01-11T18:15:08.036Z,98304.30
2018-01-11T18:17:36.426Z,98305.58
2018-01-11T18:20:04.790Z,98310.67
2018-01-11T18:22:33.411Z,98313.69
2018-01-11T18:25:01.832Z,98313.77
2018-01-11T18:27:30.964Z,98312.64
2018-01-11T18:29:59.292Z,98315.55
2018-01-11T18:32:27.676Z,98313.84
2018-01-11T18:34:56.278Z,98314.77
2018-01-11T18:37:25.271Z,98319.23
2018-01-11T18:39:53.770Z,98322.77
2018-01-11T18:42:22.606Z,98320.14
2018-01-11T18:44:52.463Z,98320.94
2018-01-11T18:47:21.929Z,98325.78
2018-01-11T18:49:51.785Z,98319.78
2018-01-11T18:52:21.016Z,98298.45
2018-01-11T18:54:51.540Z,98338.71
2018-01-11T18:57:21.820Z,98334.36
2018-01-11T18:59:51.285Z,98332.77
2018-01-11T19:02:21.053Z,98334.19
2018-01-11T19:04:50.820Z,98340.31
2018-01-11T19:07:20.593Z,98345.36
2018-01-11T19:09:50.486Z,98347.48
2018-01-11T19:12:20.293Z,98355.06
2018-01-11T19:14:50.992Z,98356.16
2018-01-11T19:17:20.770Z,98356.31
2018-01-11T19:19:50.610Z,98359.00
2018-01-11T19:22:21.264Z,98362.02
2018-01-11T19:24:51.097Z,98358.95
2018-01-11T19:27:21.749Z,98365.19
2018-01-11T19:29:51.610Z,98369.05
2018-01-11T19:32:21.426Z,98371.55
2018-01-11T19:34:51.283Z,98369.58
2018-01-11T19:37:21.178Z,98369.67
2018-01-11T19:39:51.034Z,98373.16
2018-01-11T19:42:20.948Z,98382.22
2018-01-11T19:44:50.901Z,98382.34
2018-01-11T19:47:21.640Z,98385.79
2018-01-11T19:49:51.523Z,98343.50
2018-01-11T19:52:21.575Z,98334.69
2018-01-11T19:54:51.479Z,98383.97
2018-01-11T19:57:21.361Z,98387.95
2018-01-11T19:59:51.175Z,98383.83
2018-01-11T20:02:20.993Z,98388.46
2018-01-11T20:04:50.910Z,98378.30
2018-01-11T20:07:21.510Z,98385.09
2018-01-11T20:09:51.466Z,98392.20
2018-01-11T20:12:21.355Z,98395.16
2018-01-11T20:14:51.138Z,98395.39
2018-01-11T20:17:21.019Z,98395.61
2018-01-11T20:19:50.899Z,98397.52
2018-01-11T20:22:21.898Z,98395.81
2018-01-11T20:24:51.876Z,98398.69
2018-01-11T20:43:26.844Z,98416.94
2018-01-11T20:45:56.904Z,98419.35
2018-01-11T20:48:27.460Z,98421.05
2018-01-11T20:51:02.818Z,98421.11
2018-01-11T20:53:32.746Z,98418.79
2018-01-11T20:56:02.769Z,98423.16
2018-01-11T20:58:32.984Z,98417.36
2018-01-11T21:01:03.253Z,98427.30
2018-01-11T21:03:33.178Z,98429.85
2018-01-11T21:06:03.040Z,98426.92
2018-01-11T21:08:33.597Z,98425.59
2018-01-11T21:27:08.697Z,98448.69
2018-01-11T21:29:38.708Z,98451.25
2018-01-11T21:32:08.600Z,98453.41
2018-01-11T21:34:38.470Z,98452.67
2018-01-11T21:37:08.363Z,98457.88
2018-01-11T21:39:38.220Z,98462.81
2018-01-11T21:42:08.214Z,98458.77
2018-01-11T21:44:38.135Z,98468.66
2018-01-11T21:47:08.261Z,98467.73
2018-01-11T21:49:39.907Z,98472.23
2018-01-11T21:52:09.818Z,98472.41
2018-01-11T21:54:39.666Z,98475.75
2018-01-11T21:57:09.501Z,98472.84
2018-01-11T21:59:39.484Z,98475.63
2018-01-11T22:02:09.434Z,98476.00
2018-01-11T22:04:39.245Z,98479.09
2018-01-11T22:07:09.155Z,98487.67
2018-01-11T22:09:38.969Z,98483.33
2018-01-11T22:12:09.604Z,98487.88
2018-01-11T22:14:39.474Z,98483.22
2018-01-11T22:17:09.588Z,98480.23
2018-01-11T22:19:39.709Z,98486.42
2018-01-11T22:22:09.502Z,98495.39
2018-01-11T22:24:39.359Z,98495.33
2018-01-11T22:27:09.288Z,98498.25
2018-01-11T22:29:39.049Z,98497.70
2018-01-11T22:32:08.969Z,98498.74
2018-01-11T22:34:38.762Z,98503.53
2018-01-11T22:37:08.609Z,98506.17
2018-01-11T22:39:37.865Z,98513.84
2018-01-11T22:42:08.692Z,98513.54
2018-01-11T22:44:38.265Z,98513.77
2018-01-11T22:47:06.837Z,98512.61
2018-01-11T22:49:36.207Z,98513.88
2018-01-11T22:52:04.681Z,98519.37
2018-01-11T22:54:33.177Z,98520.63
2018-01-11T22:57:01.508Z,98525.41
2018-01-11T22:59:29.844Z,98523.30
2018-01-11T23:01:58.183Z,98523.41
2018-01-11T23:04:26.495Z,98525.11
2018-01-11T23:06:54.805Z,98529.78
2018-01-11T23:09:23.166Z,98526.75
2018-01-11T23:11:51.945Z,98530.20
2018-01-11T23:14:20.270Z,98528.20
2018-01-11T23:16:48.588Z,98529.58
2018-01-11T23:19:16.929Z,98534.15
2018-01-11T23:21:45.258Z,98538.45
2018-01-11T23:24:13.580Z,98541.05
2018-01-11T23:26:41.909Z,98543.11
2018-01-11T23:29:10.235Z,98550.55
2018-01-11T23:31:38.600Z,98550.61
2018-01-11T23:34:06.929Z,98552.42
2018-01-11T23:36:35.262Z,98557.88
2018-01-11T23:39:03.593Z,98549.62
2018-01-11T23:41:31.934Z,98549.20
2018-01-11T23:44:00.259Z,98548.42
2018-01-11T23:46:28.588Z,98548.05
2018-01-11T23:48:57.688Z,98550.17
2018-01-11T23:51:26.021Z,98559.27
2018-01-11T23:53:54.358Z,98555.25
2018-01-11T23:56:22.697Z,98558.36
2018-01-11T23:58:52.622Z,98557.26
